createdAt,value
2022-11-10T00:01:52.093Z,7.57
2022-11-10T00:04:55.807Z,7.57
2022-11-10T00:08:06.637Z,7.78
2022-11-10T00:11:10.458Z,8.27
2022-11-10T00:14:33.161Z,7.43
2022-11-10T00:17:37.393Z,7.55
2022-11-10T00:20:41.435Z,6.53
2022-11-10T00:23:45.710Z,7.72
2022-11-10T00:26:50.298Z,7.07
2022-11-10T00:29:54.440Z,6.97
2022-11-10T00:32:58.487Z,6.38
2022-11-10T00:36:02.289Z,6.67
2022-11-10T00:39:06.280Z,6.03
2022-11-10T00:42:10.221Z,6.85
2022-11-10T00:45:14.988Z,6.70
2022-11-10T00:48:19.330Z,7.40
2022-11-10T00:51:24.768Z,6.17
2022-11-10T00:54:28.936Z,6.88
2022-11-10T00:57:32.913Z,5.57
2022-11-10T01:00:36.640Z,6.90
2022-11-10T01:03:40.885Z,5.80
2022-11-10T01:06:44.650Z,6.07
2022-11-10T01:09:48.425Z,5.72
2022-11-10T01:12:52.734Z,8.00
2022-11-10T01:15:56.532Z,6.30
2022-11-10T01:19:01.469Z,6.30
2022-11-10T01:22:05.450Z,6.50
2022-11-10T01:25:09.835Z,6.20
2022-11-10T01:28:13.955Z,5.38
2022-11-10T01:31:19.231Z,6.10
2022-11-10T01:34:23.400Z,5.93
2022-11-10T01:37:27.872Z,5.47
2022-11-10T01:40:31.891Z,7.03
2022-11-10T01:43:36.262Z,6.40
2022-11-10T01:46:39.834Z,5.95
2022-11-10T01:49:43.622Z,6.82
2022-11-10T01:52:49.284Z,5.80
2022-11-10T01:55:54.894Z,6.63
2022-11-10T01:59:14.743Z,5.47
2022-11-10T02:02:25.556Z,6.85
2022-11-10T02:05:29.647Z,6.75
2022-11-10T02:08:33.783Z,6.20
2022-11-10T02:11:38.338Z,6.55
2022-11-10T02:14:43.004Z,5.75
2022-11-10T02:17:47.788Z,5.75
2022-11-10T02:20:51.649Z,5.55
2022-11-10T02:23:55.567Z,5.50
2022-11-10T02:26:59.199Z,5.63
2022-11-10T02:30:03.968Z,5.43
2022-11-10T02:33:08.188Z,6.32
2022-11-10T02:36:12.392Z,6.10
2022-11-10T02:39:16.580Z,5.20
2022-11-10T02:42:20.641Z,6.00
2022-11-10T02:45:24.784Z,5.75
2022-11-10T02:48:28.621Z,7.00
2022-11-10T02:51:32.392Z,6.05
2022-11-10T02:54:36.235Z,5.83
2022-11-10T02:57:40.064Z,5.22
2022-11-10T03:00:43.931Z,6.03
2022-11-10T03:03:47.731Z,5.47
2022-11-10T03:06:51.512Z,6.53
2022-11-10T03:09:56.013Z,5.40
2022-11-10T03:13:00.928Z,5.18
2022-11-10T03:16:04.980Z,5.25
2022-11-10T03:19:08.807Z,6.50
2022-11-10T03:22:12.573Z,4.50
2022-11-10T03:25:17.014Z,5.30
2022-11-10T03:28:21.159Z,5.10
2022-11-10T03:31:25.203Z,5.30
2022-11-10T03:34:31.852Z,4.97
2022-11-10T03:37:35.827Z,5.47
2022-11-10T03:41:12.112Z,3.97
2022-11-10T03:44:03.847Z,5.10
2022-11-10T03:47:07.863Z,5.53
2022-11-10T03:50:11.689Z,4.32
2022-11-10T03:53:15.857Z,5.00
2022-11-10T03:56:20.121Z,5.43
2022-11-10T03:59:24.023Z,3.83
2022-11-10T04:02:28.318Z,5.18
2022-11-10T04:05:51.129Z,5.38
2022-11-10T04:09:01.257Z,4.75
2022-11-10T04:12:25.000Z,4.50
2022-11-10T04:15:45.039Z,5.00
2022-11-10T04:18:49.081Z,6.55
2022-11-10T04:21:53.319Z,4.68
2022-11-10T04:24:57.061Z,5.65
2022-11-10T04:28:00.808Z,5.33
2022-11-10T04:31:04.894Z,5.10
2022-11-10T04:34:09.590Z,4.90
2022-11-10T04:37:13.368Z,4.72
2022-11-10T04:40:17.364Z,4.43
2022-11-10T04:43:21.620Z,4.20
2022-11-10T04:46:25.954Z,4.47
2022-11-10T04:49:29.486Z,4.55
2022-11-10T04:52:33.526Z,3.97
2022-11-10T04:55:41.747Z,4.60
2022-11-10T04:58:46.677Z,3.97
2022-11-10T05:01:50.606Z,4.25
2022-11-10T05:04:54.812Z,4.95
2022-11-10T05:07:58.821Z,3.90
2022-11-10T05:11:04.006Z,4.45
2022-11-10T05:14:08.444Z,4.53
2022-11-10T05:17:12.505Z,4.82
2022-11-10T05:20:16.981Z,4.25
2022-11-10T05:23:39.465Z,4.20
2022-11-10T05:26:43.591Z,3.53
2022-11-10T05:29:47.730Z,5.87
2022-11-10T05:32:51.754Z,4.55
2022-11-10T05:35:55.627Z,4.57
2022-11-10T05:38:59.318Z,4.72
2022-11-10T05:42:03.234Z,4.32
2022-11-10T05:45:07.726Z,5.53
2022-11-10T05:48:11.754Z,5.40
2022-11-10T05:51:15.439Z,5.13
2022-11-10T05:54:19.474Z,4.55
2022-11-10T05:57:24.124Z,5.32
2022-11-10T06:00:29.342Z,4.37
2022-11-10T06:03:33.539Z,3.65
2022-11-10T06:06:38.023Z,4.57
2022-11-10T06:09:42.109Z,5.35
2022-11-10T06:12:46.788Z,4.30
2022-11-10T06:15:51.228Z,3.77
2022-11-10T06:18:55.324Z,5.68
2022-11-10T06:22:05.054Z,4.15
2022-11-10T06:25:12.042Z,4.45
2022-11-10T06:28:17.251Z,4.32
2022-11-10T06:31:21.279Z,3.87
2022-11-10T06:34:25.576Z,4.55
2022-11-10T06:37:30.149Z,4.03
2022-11-10T06:40:34.478Z,4.40
2022-11-10T06:43:38.522Z,4.82
2022-11-10T06:46:42.858Z,5.63
2022-11-10T06:49:47.209Z,7.38
2022-11-10T06:52:58.312Z,6.95
2022-11-10T06:56:02.050Z,6.28
2022-11-10T06:59:05.811Z,7.53
2022-11-10T07:02:16.377Z,8.07
2022-11-10T07:05:20.338Z,6.22
2022-11-10T07:08:24.979Z,5.85
2022-11-10T07:11:29.202Z,6.70
2022-11-10T07:14:32.986Z,6.45
2022-11-10T07:17:43.579Z,6.47
2022-11-10T07:20:47.298Z,5.63
2022-11-10T07:23:50.949Z,5.32
2022-11-10T07:26:54.861Z,5.45
2022-11-10T07:29:59.073Z,6.03
2022-11-10T07:33:05.067Z,7.83
2022-11-10T07:36:09.164Z,6.97
2022-11-10T07:39:13.523Z,5.97
2022-11-10T07:42:17.556Z,5.03
2022-11-10T07:45:21.618Z,7.05
2022-11-10T07:48:25.343Z,4.87
2022-11-10T07:51:30.705Z,6.57
2022-11-10T07:54:34.742Z,4.82
2022-11-10T07:57:38.637Z,5.50
2022-11-10T08:00:43.008Z,4.40
2022-11-10T08:03:46.753Z,5.50
2022-11-10T08:06:50.612Z,6.03
2022-11-10T08:09:54.972Z,6.03
2022-11-10T08:13:03.046Z,4.93
2022-11-10T08:16:07.459Z,5.50
2022-11-10T08:19:11.440Z,5.40
2022-11-10T08:22:15.187Z,3.63
2022-11-10T08:25:18.950Z,7.10
2022-11-10T08:28:22.886Z,4.43
2022-11-10T08:31:26.784Z,5.72
2022-11-10T08:34:30.418Z,4.70
2022-11-10T08:37:34.721Z,2.65
2022-11-10T08:40:39.755Z,4.38
2022-11-10T08:43:43.715Z,3.85
2022-11-10T08:46:47.562Z,4.57
2022-11-10T08:49:51.186Z,4.07
2022-11-10T08:52:55.826Z,4.70
2022-11-10T08:56:00.346Z,3.53
2022-11-10T08:59:04.527Z,5.20
2022-11-10T09:02:09.932Z,4.05
2022-11-10T09:05:13.638Z,4.13
2022-11-10T09:08:17.649Z,3.85
2022-11-10T09:11:21.810Z,6.32
2022-11-10T09:14:25.647Z,3.92
2022-11-10T09:17:29.474Z,4.55
2022-11-10T09:20:34.874Z,3.23
2022-11-10T09:23:39.037Z,4.00
2022-11-10T09:26:45.278Z,3.20
2022-11-10T09:29:48.988Z,3.60
2022-11-10T09:32:53.803Z,4.28
2022-11-10T09:35:58.973Z,4.63
2022-11-10T09:39:02.900Z,3.78
2022-11-10T09:42:21.414Z,3.15
2022-11-10T09:45:51.688Z,3.47
2022-11-10T09:48:59.044Z,3.25
2022-11-10T09:52:03.776Z,5.63
2022-11-10T09:55:26.465Z,3.15
2022-11-10T09:58:33.845Z,4.15
2022-11-10T10:01:59.279Z,4.53
2022-11-10T10:05:03.174Z,5.80
2022-11-10T10:08:08.870Z,3.50
2022-11-10T10:11:15.950Z,3.55
2022-11-10T10:14:28.933Z,4.50
2022-11-10T10:17:35.006Z,4.13
2022-11-10T10:20:59.885Z,2.42
2022-11-10T10:24:16.563Z,4.30
2022-11-10T10:27:26.513Z,4.25
2022-11-10T10:30:30.572Z,3.80
2022-11-10T10:33:34.498Z,4.50
2022-11-10T10:36:38.236Z,2.42
2022-11-10T10:39:44.513Z,3.87
2022-11-10T10:42:48.519Z,2.63
2022-11-10T10:46:09.461Z,3.45
2022-11-10T10:49:28.040Z,5.00
2022-11-10T10:52:33.007Z,2.97
2022-11-10T10:55:37.002Z,2.77
2022-11-10T10:59:01.271Z,3.65
2022-11-10T11:02:21.399Z,3.75
2022-11-10T11:05:25.458Z,3.63
2022-11-10T11:08:29.605Z,4.32
2022-11-10T11:11:35.015Z,3.67
2022-11-10T11:14:41.910Z,3.08
2022-11-10T11:17:54.062Z,3.72
2022-11-10T11:21:02.230Z,2.85
2022-11-10T11:24:06.325Z,2.85
2022-11-10T11:27:14.513Z,3.40
2022-11-10T11:30:22.743Z,3.85
2022-11-10T11:33:45.643Z,3.47
2022-11-10T11:36:52.807Z,3.05
2022-11-10T11:40:03.069Z,3.80
2022-11-10T11:43:07.478Z,3.93
2022-11-10T11:46:18.189Z,2.72
2022-11-10T11:49:41.158Z,2.65
2022-11-10T11:52:55.121Z,3.08
2022-11-10T11:56:05.358Z,2.55
2022-11-10T11:59:21.409Z,3.70
2022-11-10T12:02:28.959Z,2.90
2022-11-10T12:05:37.515Z,2.30
2022-11-10T12:08:44.779Z,2.67
2022-11-10T12:12:07.713Z,3.10
2022-11-10T12:15:17.754Z,2.40
2022-11-10T12:18:36.539Z,4.13
2022-11-10T12:21:51.250Z,3.03
2022-11-10T12:25:01.788Z,2.78
2022-11-10T12:28:11.774Z,2.58
2022-11-10T12:31:18.097Z,2.37
2022-11-10T12:34:38.062Z,2.45
2022-11-10T12:37:54.283Z,2.05
2022-11-10T12:41:02.792Z,1.75
2022-11-10T12:44:22.972Z,3.00
2022-11-10T12:47:45.712Z,2.83
2022-11-10T12:51:07.335Z,2.53
2022-11-10T12:54:16.628Z,2.13
2022-11-10T12:57:26.139Z,3.75
2022-11-10T13:00:40.199Z,2.25
2022-11-10T13:03:53.294Z,3.57
2022-11-10T13:07:01.668Z,3.13
2022-11-10T13:10:25.549Z,2.95
2022-11-10T13:13:30.943Z,2.55
2022-11-10T13:16:38.084Z,2.42
2022-11-10T13:19:49.235Z,2.20
2022-11-10T13:22:53.326Z,1.80
2022-11-10T13:26:05.693Z,2.00
2022-11-10T13:29:19.586Z,2.42
2022-11-10T13:32:28.076Z,2.38
2022-11-10T13:35:38.279Z,2.47
2022-11-10T13:38:44.136Z,2.00
2022-11-10T13:41:47.896Z,1.98
2022-11-10T13:44:53.867Z,2.45
2022-11-10T13:48:04.537Z,2.80
2022-11-10T13:51:17.500Z,2.20
2022-11-10T13:54:48.456Z,3.38
2022-11-10T13:57:57.580Z,2.47
2022-11-10T14:01:16.773Z,1.60
2022-11-10T14:04:41.099Z,2.53
2022-11-10T14:07:45.748Z,2.53
2022-11-10T14:10:51.581Z,1.98
2022-11-10T14:13:55.438Z,5.03
2022-11-10T14:16:59.618Z,4.10
2022-11-10T14:20:04.040Z,3.25
2022-11-10T14:23:13.608Z,3.93
2022-11-10T14:26:22.951Z,2.75
2022-11-10T14:29:38.870Z,3.58
2022-11-10T14:32:42.751Z,2.67
2022-11-10T14:35:51.257Z,2.05
2022-11-10T14:38:55.376Z,2.00
2022-11-10T14:42:00.827Z,3.00
2022-11-10T14:45:16.980Z,2.85
2022-11-10T14:48:22.783Z,8.23
2022-11-10T14:51:28.852Z,3.30
2022-11-10T14:54:32.991Z,2.20
2022-11-10T14:57:38.140Z,5.68
2022-11-10T15:00:42.235Z,4.28
2022-11-10T15:03:46.082Z,3.33
2022-11-10T15:06:51.694Z,3.42
2022-11-10T15:10:16.496Z,4.43
2022-11-10T15:13:26.899Z,6.05
2022-11-10T15:16:31.615Z,3.78
2022-11-10T15:19:36.610Z,6.70
2022-11-10T15:22:40.766Z,5.00
2022-11-10T15:25:50.535Z,6.13
2022-11-10T15:28:57.816Z,5.10
2022-11-10T15:32:02.243Z,6.25
2022-11-10T15:35:11.335Z,5.90
2022-11-10T15:38:29.547Z,5.07
2022-11-10T15:41:34.359Z,5.33
2022-11-10T15:44:38.684Z,11.45
2022-11-10T15:47:42.536Z,6.07
2022-11-10T15:50:48.290Z,5.40
2022-11-10T15:53:52.998Z,5.75
2022-11-10T15:56:57.035Z,6.70
2022-11-10T16:00:00.806Z,6.55
2022-11-10T16:03:04.847Z,8.15
2022-11-10T16:06:15.814Z,5.10
2022-11-10T16:09:19.921Z,7.25
2022-11-10T16:12:24.110Z,6.60
2022-11-10T16:15:27.994Z,5.43
2022-11-10T16:18:31.778Z,15.13
2022-11-10T16:21:35.505Z,5.20
2022-11-10T16:24:39.934Z,8.75
2022-11-10T16:27:44.086Z,5.80
2022-11-10T16:30:47.813Z,7.15
2022-11-10T16:33:51.655Z,6.97
2022-11-10T16:36:55.596Z,5.32
2022-11-10T16:39:59.601Z,6.43
2022-11-10T16:43:03.843Z,6.87
2022-11-10T16:46:17.396Z,4.78
2022-11-10T16:49:31.580Z,9.15
2022-11-10T16:52:35.458Z,7.57
2022-11-10T16:55:39.391Z,5.72
2022-11-10T16:58:43.323Z,5.83
2022-11-10T17:01:48.010Z,5.30
2022-11-10T17:04:52.512Z,11.30
2022-11-10T17:07:57.070Z,7.00
2022-11-10T17:11:01.713Z,6.18
2022-11-10T17:14:07.223Z,8.13
2022-11-10T17:17:15.345Z,5.18
2022-11-10T17:20:21.665Z,6.32
2022-11-10T17:23:26.577Z,5.60
2022-11-10T17:26:31.610Z,8.07
2022-11-10T17:29:35.593Z,5.20
2022-11-10T17:33:03.616Z,5.50
2022-11-10T17:36:05.083Z,6.20
2022-11-10T17:39:12.491Z,5.85
2022-11-10T17:42:17.022Z,7.10
2022-11-10T17:45:25.634Z,5.53
2022-11-10T17:48:29.700Z,8.00
2022-11-10T17:51:34.180Z,10.05
2022-11-10T17:54:38.034Z,8.25
2022-11-10T17:57:41.886Z,6.95
2022-11-10T18:00:46.296Z,7.93
2022-11-10T18:03:50.827Z,7.57
2022-11-10T18:06:55.897Z,6.03
2022-11-10T18:09:59.639Z,7.57
2022-11-10T18:13:03.521Z,6.25
2022-11-10T18:16:10.535Z,8.07
2022-11-10T18:19:14.467Z,6.03
2022-11-10T18:22:18.609Z,7.22
2022-11-10T18:25:22.554Z,7.25
2022-11-10T18:28:26.398Z,5.75
2022-11-10T18:31:30.507Z,7.13
2022-11-10T18:34:34.336Z,5.85
2022-11-10T18:37:39.246Z,8.50
2022-11-10T18:40:43.565Z,5.38
2022-11-10T18:43:47.597Z,6.95
2022-11-10T18:46:51.676Z,7.07
2022-11-10T18:49:55.595Z,6.40
2022-11-10T18:52:59.515Z,9.32
2022-11-10T18:56:03.403Z,5.15
2022-11-10T18:59:07.162Z,5.28
2022-11-10T19:02:11.963Z,12.70
2022-11-10T19:05:16.220Z,10.25
2022-11-10T19:08:19.888Z,10.15
2022-11-10T19:11:23.844Z,8.82
2022-11-10T19:14:28.285Z,8.93
2022-11-10T19:17:32.268Z,8.87
2022-11-10T19:20:36.874Z,6.30
2022-11-10T19:23:40.974Z,7.72
2022-11-10T19:26:45.121Z,8.68
2022-11-10T19:29:49.067Z,5.97
2022-11-10T19:32:53.045Z,7.07
2022-11-10T19:36:01.069Z,5.90
2022-11-10T19:39:05.380Z,7.20
2022-11-10T19:42:09.288Z,6.72
2022-11-10T19:45:15.327Z,6.50
2022-11-10T19:48:19.507Z,6.53
2022-11-10T19:51:24.497Z,7.47
2022-11-10T19:54:28.476Z,13.18
2022-11-10T19:57:32.470Z,6.38
2022-11-10T20:00:36.082Z,10.73
2022-11-10T20:03:40.284Z,8.27
2022-11-10T20:06:44.400Z,6.35
2022-11-10T20:09:48.063Z,6.53
2022-11-10T20:12:51.992Z,7.70
2022-11-10T20:15:56.326Z,5.38
2022-11-10T20:19:00.254Z,6.07
2022-11-10T20:22:04.216Z,5.90
2022-11-10T20:25:08.651Z,8.07
2022-11-10T20:28:14.240Z,7.90
2022-11-10T20:31:20.604Z,7.20
2022-11-10T20:34:24.809Z,5.80
2022-11-10T20:37:31.885Z,8.00
2022-11-10T20:40:44.442Z,9.15
2022-11-10T20:43:49.075Z,7.30
2022-11-10T20:46:54.945Z,6.35
2022-11-10T20:49:59.746Z,7.77
2022-11-10T20:53:05.669Z,6.15
2022-11-10T20:56:13.607Z,6.13
2022-11-10T20:59:17.828Z,8.32
2022-11-10T21:02:21.863Z,8.40
2022-11-10T21:05:25.987Z,11.00
2022-11-10T21:08:30.181Z,5.72
2022-11-10T21:11:53.237Z,6.18
2022-11-10T21:14:58.186Z,6.20
2022-11-10T21:18:02.095Z,6.25
2022-11-10T21:21:18.318Z,10.37
2022-11-10T21:24:22.425Z,7.38
2022-11-10T21:27:26.596Z,6.80
2022-11-10T21:30:31.154Z,7.70
2022-11-10T21:33:35.062Z,8.65
2022-11-10T21:36:39.018Z,6.80
2022-11-10T21:39:44.041Z,6.18
2022-11-10T21:42:48.094Z,6.00
2022-11-10T21:45:59.224Z,6.03
2022-11-10T21:49:07.596Z,7.28
2022-11-10T21:52:12.126Z,8.43
2022-11-10T21:55:15.870Z,8.48
2022-11-10T21:58:19.780Z,9.50
2022-11-10T22:01:23.642Z,5.72
2022-11-10T22:04:28.239Z,7.60
2022-11-10T22:07:32.140Z,4.90
2022-11-10T22:10:55.622Z,12.63
2022-11-10T22:14:18.412Z,8.85
2022-11-10T22:17:41.230Z,10.38
2022-11-10T22:20:45.807Z,13.20
2022-11-10T22:24:08.525Z,6.83
2022-11-10T22:27:13.205Z,10.48
2022-11-10T22:30:17.513Z,7.75
2022-11-10T22:33:27.571Z,10.60
2022-11-10T22:36:31.175Z,6.78
2022-11-10T22:39:53.870Z,8.10
2022-11-10T22:43:17.611Z,8.32
2022-11-10T22:46:21.691Z,8.20
2022-11-10T22:49:25.435Z,5.95
2022-11-10T22:52:30.061Z,6.63
2022-11-10T22:55:34.252Z,9.93
2022-11-10T22:58:38.234Z,8.70
2022-11-10T23:01:43.797Z,8.95
2022-11-10T23:04:48.122Z,11.95
2022-11-10T23:07:51.896Z,7.22
2022-11-10T23:10:59.716Z,5.13
2022-11-10T23:14:04.540Z,5.10
2022-11-10T23:17:08.379Z,5.90
2022-11-10T23:20:12.412Z,6.00
2022-11-10T23:23:16.735Z,5.70
2022-11-10T23:26:22.185Z,7.33
2022-11-10T23:29:25.969Z,6.60
2022-11-10T23:32:29.909Z,6.25
2022-11-10T23:35:33.879Z,6.78
2022-11-10T23:38:38.193Z,6.38
2022-11-10T23:41:42.083Z,5.70
2022-11-10T23:44:45.763Z,7.57
2022-11-10T23:47:49.874Z,5.75
2022-11-10T23:50:53.700Z,4.90
2022-11-10T23:53:57.416Z,7.15
2022-11-10T23:57:01.204Z,5.83
